sensor_id;sensor_type;location;lat;lon;timestamp;pressure;altitude;pressure_sealevel;temperature;humidity
64253;BME280;50592;52.958;-7.470;2022-11-15T00:01:50;97784.50;;;10.88;100.00
64253;BME280;50592;52.958;-7.470;2022-11-15T00:04:34;97792.81;;;10.52;100.00
64253;BME280;50592;52.958;-7.470;2022-11-15T00:07:18;97795.34;;;10.13;100.00
64253;BME280;50592;52.958;-7.470;2022-11-15T00:10:03;97797.63;;;9.96;100.00
64253;BME280;50592;52.958;-7.470;2022-11-15T00:12:47;97809.41;;;9.80;100.00
64253;BME280;50592;52.958;-7.470;2022-11-15T00:15:35;97813.69;;;9.67;100.00
64253;BME280;50592;52.958;-7.470;2022-11-15T00:18:20;97814.28;;;9.56;100.00
64253;BME280;50592;52.958;-7.470;2022-11-15T00:21:07;97835.59;;;9.54;100.00
64253;BME280;50592;52.958;-7.470;2022-11-15T00:23:51;97831.13;;;9.48;100.00
64253;BME280;50592;52.958;-7.470;2022-11-15T00:26:36;97837.00;;;9.43;100.00
64253;BME280;50592;52.958;-7.470;2022-11-15T00:29:22;97836.19;;;9.29;100.00
64253;BME280;50592;52.958;-7.470;2022-11-15T00:32:06;97843.66;;;9.19;100.00
64253;BME280;50592;52.958;-7.470;2022-11-15T00:34:50;97834.50;;;9.08;100.00
64253;BME280;50592;52.958;-7.470;2022-11-15T00:37:34;97824.56;;;9.03;100.00
64253;BME280;50592;52.958;-7.470;2022-11-15T00:40:19;97835.69;;;8.99;100.00
64253;BME280;50592;52.958;-7.470;2022-11-15T00:43:03;97846.63;;;8.96;100.00
64253;BME280;50592;52.958;-7.470;2022-11-15T00:45:47;97854.16;;;8.99;100.00
64253;BME280;50592;52.958;-7.470;2022-11-15T00:48:31;97851.50;;;8.99;100.00
64253;BME280;50592;52.958;-7.470;2022-11-15T00:51:15;97852.34;;;8.99;100.00
64253;BME280;50592;52.958;-7.470;2022-11-15T00:54:01;97847.28;;;9.04;100.00
64253;BME280;50592;52.958;-7.470;2022-11-15T00:56:45;97846.66;;;9.02;100.00
64253;BME280;50592;52.958;-7.470;2022-11-15T00:59:29;97844.66;;;9.04;100.00
64253;BME280;50592;52.958;-7.470;2022-11-15T01:02:13;97842.81;;;9.05;100.00
64253;BME280;50592;52.958;-7.470;2022-11-15T01:04:58;97848.28;;;9.03;100.00
64253;BME280;50592;52.958;-7.470;2022-11-15T01:07:42;97848.91;;;9.05;100.00
64253;BME280;50592;52.958;-7.470;2022-11-15T01:10:27;97853.16;;;9.06;100.00
64253;BME280;50592;52.958;-7.470;2022-11-15T01:13:11;97851.34;;;9.07;100.00
64253;BME280;50592;52.958;-7.470;2022-11-15T01:15:55;97844.03;;;9.02;100.00
64253;BME280;50592;52.958;-7.470;2022-11-15T01:18:39;97839.16;;;8.99;100.00
64253;BME280;50592;52.958;-7.470;2022-11-15T01:21:23;97860.63;;;8.96;100.00
64253;BME280;50592;52.958;-7.470;2022-11-15T01:24:11;97856.34;;;8.95;100.00
64253;BME280;50592;52.958;-7.470;2022-11-15T01:26:56;97856.94;;;8.90;100.00
64253;BME280;50592;52.958;-7.470;2022-11-15T01:29:40;97860.59;;;8.89;100.00
64253;BME280;50592;52.958;-7.470;2022-11-15T01:32:24;97871.53;;;8.86;100.00
64253;BME280;50592;52.958;-7.470;2022-11-15T01:35:09;97874.97;;;8.80;100.00
64253;BME280;50592;52.958;-7.470;2022-11-15T01:37:53;97867.44;;;8.77;100.00
64253;BME280;50592;52.958;-7.470;2022-11-15T01:40:38;97867.66;;;8.75;100.00
64253;BME280;50592;52.958;-7.470;2022-11-15T01:43:34;97865.41;;;8.72;100.00
64253;BME280;50592;52.958;-7.470;2022-11-15T01:49:13;97847.34;;;8.62;100.00
64253;BME280;50592;52.958;-7.470;2022-11-15T01:52:00;97853.63;;;8.61;100.00
64253;BME280;50592;52.958;-7.470;2022-11-15T01:54:47;97848.75;;;8.58;100.00
64253;BME280;50592;52.958;-7.470;2022-11-15T01:57:33;97844.03;;;8.53;100.00
64253;BME280;50592;52.958;-7.470;2022-11-15T02:00:18;97863.25;;;8.47;100.00
64253;BME280;50592;52.958;-7.470;2022-11-15T02:03:02;97857.94;;;8.40;100.00
64253;BME280;50592;52.958;-7.470;2022-11-15T02:05:47;97861.94;;;8.36;100.00
64253;BME280;50592;52.958;-7.470;2022-11-15T02:08:31;97869.06;;;8.36;100.00
64253;BME280;50592;52.958;-7.470;2022-11-15T02:11:15;97864.56;;;8.29;100.00
64253;BME280;50592;52.958;-7.470;2022-11-15T02:14:01;97874.69;;;8.32;100.00
64253;BME280;50592;52.958;-7.470;2022-11-15T02:25:48;97906.69;;;8.29;100.00
64253;BME280;50592;52.958;-7.470;2022-11-15T02:31:41;97901.59;;;8.28;100.00
64253;BME280;50592;52.958;-7.470;2022-11-15T02:40:44;97877.91;;;8.28;100.00
64253;BME280;50592;52.958;-7.470;2022-11-15T02:43:47;97882.56;;;8.26;100.00
64253;BME280;50592;52.958;-7.470;2022-11-15T02:46:47;97890.63;;;8.24;100.00
64253;BME280;50592;52.958;-7.470;2022-11-15T02:49:54;97892.22;;;8.18;100.00
64253;BME280;50592;52.958;-7.470;2022-11-15T02:52:40;97911.59;;;8.11;100.00
64253;BME280;50592;52.958;-7.470;2022-11-15T02:55:46;97926.56;;;8.10;100.00
64253;BME280;50592;52.958;-7.470;2022-11-15T03:01:52;97923.44;;;8.00;100.00
64253;BME280;50592;52.958;-7.470;2022-11-15T03:04:56;97920.63;;;8.01;100.00
64253;BME280;50592;52.958;-7.470;2022-11-15T03:08:00;97908.47;;;8.00;100.00
64253;BME280;50592;52.958;-7.470;2022-11-15T03:10:56;97906.28;;;8.04;100.00
64253;BME280;50592;52.958;-7.470;2022-11-15T03:14:06;97920.25;;;8.04;100.00
64253;BME280;50592;52.958;-7.470;2022-11-15T03:17:02;97911.31;;;7.99;100.00
64253;BME280;50592;52.958;-7.470;2022-11-15T03:19:54;97916.50;;;7.92;100.00
64253;BME280;50592;52.958;-7.470;2022-11-15T03:22:43;97910.19;;;7.86;100.00
64253;BME280;50592;52.958;-7.470;2022-11-15T03:25:28;97901.22;;;7.80;100.00
64253;BME280;50592;52.958;-7.470;2022-11-15T03:28:20;97901.59;;;7.77;100.00
64253;BME280;50592;52.958;-7.470;2022-11-15T03:31:06;97916.78;;;7.75;100.00
64253;BME280;50592;52.958;-7.470;2022-11-15T03:35:01;97918.59;;;7.75;100.00
64253;BME280;50592;52.958;-7.470;2022-11-15T03:37:22;97907.81;;;7.69;100.00
64253;BME280;50592;52.958;-7.470;2022-11-15T03:40:09;97912.28;;;7.69;100.00
64253;BME280;50592;52.958;-7.470;2022-11-15T03:43:33;97913.91;;;7.70;100.00
64253;BME280;50592;52.958;-7.470;2022-11-15T03:46:18;97916.28;;;7.65;100.00
64253;BME280;50592;52.958;-7.470;2022-11-15T03:49:17;97925.81;;;7.66;100.00
64253;BME280;50592;52.958;-7.470;2022-11-15T03:52:04;97909.22;;;7.65;100.00
64253;BME280;50592;52.958;-7.470;2022-11-15T03:54:52;97909.22;;;7.65;100.00
64253;BME280;50592;52.958;-7.470;2022-11-15T03:57:37;97917.28;;;7.64;100.00
64253;BME280;50592;52.958;-7.470;2022-11-15T04:00:22;97924.97;;;7.65;100.00
64253;BME280;50592;52.958;-7.470;2022-11-15T04:03:06;97933.25;;;7.62;100.00
64253;BME280;50592;52.958;-7.470;2022-11-15T04:05:51;97925.53;;;7.61;100.00
64253;BME280;50592;52.958;-7.470;2022-11-15T04:08:36;97897.63;;;7.60;100.00
64253;BME280;50592;52.958;-7.470;2022-11-15T04:11:20;97909.31;;;7.57;100.00
64253;BME280;50592;52.958;-7.470;2022-11-15T04:14:05;97924.66;;;7.53;100.00
64253;BME280;50592;52.958;-7.470;2022-11-15T04:16:49;97938.88;;;7.37;100.00
64253;BME280;50592;52.958;-7.470;2022-11-15T04:19:34;97926.94;;;7.19;100.00
64253;BME280;50592;52.958;-7.470;2022-11-15T04:22:37;97912.81;;;7.20;100.00
64253;BME280;50592;52.958;-7.470;2022-11-15T04:25:41;97899.28;;;7.24;100.00
64253;BME280;50592;52.958;-7.470;2022-11-15T04:28:26;97905.97;;;7.26;100.00
64253;BME280;50592;52.958;-7.470;2022-11-15T04:31:11;97914.75;;;7.34;100.00
64253;BME280;50592;52.958;-7.470;2022-11-15T04:33:57;97927.53;;;7.37;100.00
64253;BME280;50592;52.958;-7.470;2022-11-15T04:36:41;97930.91;;;7.30;100.00
64253;BME280;50592;52.958;-7.470;2022-11-15T04:39:44;97931.72;;;7.31;100.00
64253;BME280;50592;52.958;-7.470;2022-11-15T04:42:29;97933.16;;;7.34;100.00
64253;BME280;50592;52.958;-7.470;2022-11-15T04:45:13;97932.78;;;7.37;100.00
64253;BME280;50592;52.958;-7.470;2022-11-15T04:47:57;97918.63;;;7.38;100.00
64253;BME280;50592;52.958;-7.470;2022-11-15T04:50:42;97905.25;;;7.32;100.00
64253;BME280;50592;52.958;-7.470;2022-11-15T04:53:26;97904.63;;;7.30;100.00
64253;BME280;50592;52.958;-7.470;2022-11-15T04:56:11;97899.66;;;7.20;100.00
64253;BME280;50592;52.958;-7.470;2022-11-15T04:58:55;97918.72;;;7.07;100.00
64253;BME280;50592;52.958;-7.470;2022-11-15T05:01:39;97921.38;;;6.92;100.00
64253;BME280;50592;52.958;-7.470;2022-11-15T05:04:24;97928.44;;;6.92;100.00
64253;BME280;50592;52.958;-7.470;2022-11-15T05:07:08;97922.63;;;6.97;100.00
64253;BME280;50592;52.958;-7.470;2022-11-15T05:09:52;97914.28;;;6.93;100.00
64253;BME280;50592;52.958;-7.470;2022-11-15T05:12:37;97928.53;;;6.99;100.00
64253;BME280;50592;52.958;-7.470;2022-11-15T05:15:22;97932.94;;;6.98;100.00
64253;BME280;50592;52.958;-7.470;2022-11-15T05:18:06;97945.53;;;7.03;100.00
64253;BME280;50592;52.958;-7.470;2022-11-15T05:20:51;97951.25;;;7.06;100.00
64253;BME280;50592;52.958;-7.470;2022-11-15T05:23:35;97952.25;;;7.05;100.00
64253;BME280;50592;52.958;-7.470;2022-11-15T05:26:19;97946.00;;;7.06;100.00
64253;BME280;50592;52.958;-7.470;2022-11-15T05:29:03;97951.25;;;7.06;100.00
64253;BME280;50592;52.958;-7.470;2022-11-15T05:31:48;97954.31;;;7.10;100.00
64253;BME280;50592;52.958;-7.470;2022-11-15T05:34:32;97947.25;;;7.11;100.00
64253;BME280;50592;52.958;-7.470;2022-11-15T05:37:17;97948.69;;;7.13;100.00
64253;BME280;50592;52.958;-7.470;2022-11-15T05:40:03;97947.88;;;7.13;100.00
64253;BME280;50592;52.958;-7.470;2022-11-15T05:42:47;97944.25;;;7.14;100.00
64253;BME280;50592;52.958;-7.470;2022-11-15T05:45:34;97952.75;;;7.16;100.00
64253;BME280;50592;52.958;-7.470;2022-11-15T05:48:19;97955.56;;;7.14;100.00
64253;BME280;50592;52.958;-7.470;2022-11-15T05:51:04;97954.38;;;7.17;100.00
64253;BME280;50592;52.958;-7.470;2022-11-15T05:53:51;97949.94;;;7.17;100.00
64253;BME280;50592;52.958;-7.470;2022-11-15T05:56:37;97944.44;;;7.12;100.00
64253;BME280;50592;52.958;-7.470;2022-11-15T05:59:21;97939.72;;;7.07;100.00
64253;BME280;50592;52.958;-7.470;2022-11-15T06:02:05;97937.28;;;7.06;100.00
64253;BME280;50592;52.958;-7.470;2022-11-15T06:04:50;97943.72;;;7.03;100.00
64253;BME280;50592;52.958;-7.470;2022-11-15T06:07:34;97936.69;;;7.04;100.00
64253;BME280;50592;52.958;-7.470;2022-11-15T06:10:18;97943.63;;;6.97;100.00
64253;BME280;50592;52.958;-7.470;2022-11-15T06:13:04;97940.03;;;6.82;100.00
64253;BME280;50592;52.958;-7.470;2022-11-15T06:15:48;97930.63;;;6.73;100.00
64253;BME280;50592;52.958;-7.470;2022-11-15T06:18:33;97945.38;;;6.74;100.00
64253;BME280;50592;52.958;-7.470;2022-11-15T06:21:18;97948.66;;;6.76;100.00
64253;BME280;50592;52.958;-7.470;2022-11-15T06:24:03;97949.66;;;6.75;100.00
64253;BME280;50592;52.958;-7.470;2022-11-15T06:26:47;97952.00;;;6.70;100.00
64253;BME280;50592;52.958;-7.470;2022-11-15T06:29:31;97954.63;;;6.70;100.00
64253;BME280;50592;52.958;-7.470;2022-11-15T06:32:15;97961.22;;;6.66;100.00
64253;BME280;50592;52.958;-7.470;2022-11-15T06:34:59;97948.91;;;6.66;100.00
64253;BME280;50592;52.958;-7.470;2022-11-15T06:37:44;97948.91;;;6.66;100.00
64253;BME280;50592;52.958;-7.470;2022-11-15T06:40:28;97950.09;;;6.64;100.00
64253;BME280;50592;52.958;-7.470;2022-11-15T06:43:12;97946.81;;;6.62;100.00
64253;BME280;50592;52.958;-7.470;2022-11-15T06:45:59;97946.00;;;6.61;100.00
64253;BME280;50592;52.958;-7.470;2022-11-15T06:48:44;97947.19;;;6.58;100.00
64253;BME280;50592;52.958;-7.470;2022-11-15T06:51:29;97942.94;;;6.57;100.00
64253;BME280;50592;52.958;-7.470;2022-11-15T06:54:14;97937.88;;;6.56;100.00
64253;BME280;50592;52.958;-7.470;2022-11-15T06:56:58;97946.38;;;6.58;100.00
64253;BME280;50592;52.958;-7.470;2022-11-15T06:59:42;97949.44;;;6.62;100.00
64253;BME280;50592;52.958;-7.470;2022-11-15T07:02:27;97956.69;;;6.60;100.00
64253;BME280;50592;52.958;-7.470;2022-11-15T07:05:11;97963.75;;;6.59;100.00
64253;BME280;50592;52.958;-7.470;2022-11-15T07:07:57;97965.75;;;6.57;100.00
64253;BME280;50592;52.958;-7.470;2022-11-15T07:10:41;97965.03;;;6.48;100.00
64253;BME280;50592;52.958;-7.470;2022-11-15T07:13:26;97968.88;;;6.37;100.00
64253;BME280;50592;52.958;-7.470;2022-11-15T07:16:10;97969.75;;;6.29;100.00
64253;BME280;50592;52.958;-7.470;2022-11-15T07:18:55;97977.47;;;6.31;100.00
64253;BME280;50592;52.958;-7.470;2022-11-15T07:21:40;97987.34;;;6.29;100.00
64253;BME280;50592;52.958;-7.470;2022-11-15T07:24:24;97986.88;;;6.25;100.00
64253;BME280;50592;52.958;-7.470;2022-11-15T07:27:08;97986.22;;;6.23;100.00
64253;BME280;50592;52.958;-7.470;2022-11-15T07:29:52;97980.06;;;6.16;100.00
64253;BME280;50592;52.958;-7.470;2022-11-15T07:32:36;97982.50;;;6.17;100.00
64253;BME280;50592;52.958;-7.470;2022-11-15T07:35:20;97971.38;;;6.15;100.00
64253;BME280;50592;52.958;-7.470;2022-11-15T07:38:05;97977.72;;;6.21;100.00
64253;BME280;50592;52.958;-7.470;2022-11-15T07:40:59;97970.47;;;6.23;100.00
64253;BME280;50592;52.958;-7.470;2022-11-15T07:43:43;97962.00;;;6.21;100.00
64253;BME280;50592;52.958;-7.470;2022-11-15T07:46:28;97963.63;;;6.22;100.00
64253;BME280;50592;52.958;-7.470;2022-11-15T07:49:13;97967.59;;;6.18;100.00
64253;BME280;50592;52.958;-7.470;2022-11-15T07:51:57;97972.25;;;6.07;100.00
64253;BME280;50592;52.958;-7.470;2022-11-15T07:54:41;97961.44;;;6.02;100.00
64253;BME280;50592;52.958;-7.470;2022-11-15T07:57:25;97967.38;;;6.04;100.00
64253;BME280;50592;52.958;-7.470;2022-11-15T08:00:10;97960.81;;;6.00;100.00
64253;BME280;50592;52.958;-7.470;2022-11-15T08:03:06;97964.59;;;5.98;100.00
64253;BME280;50592;52.958;-7.470;2022-11-15T08:05:51;97959.09;;;5.92;100.00
64253;BME280;50592;52.958;-7.470;2022-11-15T08:08:36;97964.56;;;5.82;100.00
64253;BME280;50592;52.958;-7.470;2022-11-15T08:11:20;97974.63;;;5.70;100.00
64253;BME280;50592;52.958;-7.470;2022-11-15T08:14:04;97971.91;;;5.64;100.00
64253;BME280;50592;52.958;-7.470;2022-11-15T08:16:48;97980.91;;;5.61;100.00
64253;BME280;50592;52.958;-7.470;2022-11-15T08:19:33;97982.22;;;5.65;100.00
64253;BME280;50592;52.958;-7.470;2022-11-15T08:22:18;97979.41;;;5.67;100.00
64253;BME280;50592;52.958;-7.470;2022-11-15T08:25:03;97978.59;;;5.66;100.00
64253;BME280;50592;52.958;-7.470;2022-11-15T08:27:47;97979.41;;;5.67;100.00
64253;BME280;50592;52.958;-7.470;2022-11-15T08:30:35;97976.44;;;5.70;100.00
64253;BME280;50592;52.958;-7.470;2022-11-15T08:33:20;97985.09;;;5.70;100.00
64253;BME280;50592;52.958;-7.470;2022-11-15T08:36:05;97990.47;;;5.77;100.00
64253;BME280;50592;52.958;-7.470;2022-11-15T08:38:49;97988.16;;;5.82;100.00
64253;BME280;50592;52.958;-7.470;2022-11-15T08:41:36;97987.44;;;5.89;100.00
64253;BME280;50592;52.958;-7.470;2022-11-15T08:44:21;97981.69;;;5.93;100.00
64253;BME280;50592;52.958;-7.470;2022-11-15T08:47:06;97983.78;;;5.98;100.00
64253;BME280;50592;52.958;-7.470;2022-11-15T08:49:50;97984.94;;;5.95;100.00
64253;BME280;50592;52.958;-7.470;2022-11-15T08:52:34;97985.31;;;5.92;100.00
64253;BME280;50592;52.958;-7.470;2022-11-15T08:55:18;97989.06;;;5.90;100.00
64253;BME280;50592;52.958;-7.470;2022-11-15T08:58:03;97987.44;;;5.89;100.00
64253;BME280;50592;52.958;-7.470;2022-11-15T09:00:47;97981.38;;;5.88;100.00
64253;BME280;50592;52.958;-7.470;2022-11-15T09:03:31;97985.47;;;5.91;100.00
64253;BME280;50592;52.958;-7.470;2022-11-15T09:06:16;97980.97;;;6.00;100.00
64253;BME280;50592;52.958;-7.470;2022-11-15T09:09:02;97995.69;;;6.09;100.00
64253;BME280;50592;52.958;-7.470;2022-11-15T09:11:46;97990.91;;;6.13;100.00
64253;BME280;50592;52.958;-7.470;2022-11-15T09:14:31;97992.53;;;6.14;100.00
64253;BME280;50592;52.958;-7.470;2022-11-15T09:17:15;97989.72;;;6.15;100.00
64253;BME280;50592;52.958;-7.470;2022-11-15T09:20:01;97983.78;;;6.22;100.00
64253;BME280;50592;52.958;-7.470;2022-11-15T09:22:46;97987.88;;;6.24;100.00
64253;BME280;50592;52.958;-7.470;2022-11-15T09:25:31;97984.78;;;6.36;100.00
64253;BME280;50592;52.958;-7.470;2022-11-15T09:28:16;97975.22;;;6.43;100.00
64253;BME280;50592;52.958;-7.470;2022-11-15T09:31:04;97969.09;;;6.51;100.00
64253;BME280;50592;52.958;-7.470;2022-11-15T09:33:48;97966.56;;;6.57;100.00
64253;BME280;50592;52.958;-7.470;2022-11-15T09:36:32;97966.38;;;6.59;100.00
64253;BME280;50592;52.958;-7.470;2022-11-15T09:39:16;97963.22;;;6.64;100.00
64253;BME280;50592;52.958;-7.470;2022-11-15T09:48:37;97962.84;;;6.97;100.00
64253;BME280;50592;52.958;-7.470;2022-11-15T09:51:36;97950.69;;;7.11;100.00
64253;BME280;50592;52.958;-7.470;2022-11-15T09:54:38;97950.84;;;7.25;100.00
64253;BME280;50592;52.958;-7.470;2022-11-15T09:57:13;97948.09;;;7.33;100.00
64253;BME280;50592;52.958;-7.470;2022-11-15T10:05:16;97935.63;;;7.57;100.00
64253;BME280;50592;52.958;-7.470;2022-11-15T10:13:22;97925.06;;;7.72;100.00
64253;BME280;50592;52.958;-7.470;2022-11-15T10:15:50;97925.44;;;7.69;100.00
64253;BME280;50592;52.958;-7.470;2022-11-15T10:20:59;97921.22;;;7.75;100.00
64253;BME280;50592;52.958;-7.470;2022-11-15T10:23:27;97928.09;;;7.76;100.00
64253;BME280;50592;52.958;-7.470;2022-11-15T10:25:56;97922.03;;;7.75;100.00
64253;BME280;50592;52.958;-7.470;2022-11-15T10:28:27;97924.91;;;7.80;100.00
64253;BME280;50592;52.958;-7.470;2022-11-15T10:30:58;97918.47;;;7.83;100.00
64253;BME280;50592;52.958;-7.470;2022-11-15T10:33:38;97913.88;;;7.92;100.00
64253;BME280;50592;52.958;-7.470;2022-11-15T10:46:35;97892.50;;;8.30;100.00
64253;BME280;50592;52.958;-7.470;2022-11-15T10:49:21;97890.91;;;8.36;100.00
64253;BME280;50592;52.958;-7.470;2022-11-15T10:51:49;97897.41;;;8.40;100.00
64253;BME280;50592;52.958;-7.470;2022-11-15T10:54:22;97892.94;;;8.41;100.00
64253;BME280;50592;52.958;-7.470;2022-11-15T10:56:51;97893.63;;;8.50;100.00
64253;BME280;50592;52.958;-7.470;2022-11-15T10:59:28;97881.53;;;8.55;100.00
64253;BME280;50592;52.958;-7.470;2022-11-15T11:01:54;97879.94;;;8.61;100.00
64253;BME280;50592;52.958;-7.470;2022-11-15T11:04:21;97869.41;;;8.68;100.00
64253;BME280;50592;52.958;-7.470;2022-11-15T11:06:52;97865.63;;;8.77;100.00
64253;BME280;50592;52.958;-7.470;2022-11-15T11:09:32;97863.63;;;8.86;100.00
64253;BME280;50592;52.958;-7.470;2022-11-15T11:11:59;97861.03;;;8.93;100.00
64253;BME280;50592;52.958;-7.470;2022-11-15T11:14:29;97863.50;;;9.01;100.00
64253;BME280;50592;52.958;-7.470;2022-11-15T11:17:41;97855.59;;;9.01;100.00
64253;BME280;50592;52.958;-7.470;2022-11-15T11:29:07;97852.56;;;9.04;100.00
64253;BME280;50592;52.958;-7.470;2022-11-15T11:32:07;97851.75;;;9.11;100.00
64253;BME280;50592;52.958;-7.470;2022-11-15T11:35:05;97842.22;;;9.16;100.00
64253;BME280;50592;52.958;-7.470;2022-11-15T11:37:50;97836.97;;;9.23;100.00
64253;BME280;50592;52.958;-7.470;2022-11-15T11:40:30;97834.38;;;9.30;100.00
64253;BME280;50592;52.958;-7.470;2022-11-15T11:48:11;97845.91;;;9.36;100.00
64253;BME280;50592;52.958;-7.470;2022-11-15T11:50:38;97852.59;;;9.38;100.00
64253;BME280;50592;52.958;-7.470;2022-11-15T11:53:31;97845.50;;;9.39;100.00
64253;BME280;50592;52.958;-7.470;2022-11-15T11:56:31;97837.00;;;9.43;100.00
64253;BME280;50592;52.958;-7.470;2022-11-15T11:59:00;97834.38;;;9.43;100.00
64253;BME280;50592;52.958;-7.470;2022-11-15T12:01:41;97835.56;;;9.48;100.00
64253;BME280;50592;52.958;-7.470;2022-11-15T12:04:24;97833.56;;;9.57;100.00
64253;BME280;50592;52.958;-7.470;2022-11-15T12:07:27;97833.16;;;9.60;100.00
64253;BME280;50592;52.958;-7.470;2022-11-15T12:10:15;97826.47;;;9.71;100.00
64253;BME280;50592;52.958;-7.470;2022-11-15T12:18:12;97812.84;;;9.94;100.00
64253;BME280;50592;52.958;-7.470;2022-11-15T12:20:47;97811.00;;;9.95;100.00
64253;BME280;50592;52.958;-7.470;2022-11-15T12:23:24;97815.25;;;10.02;100.00
64253;BME280;50592;52.958;-7.470;2022-11-15T12:26:04;97808.16;;;10.03;100.00
64253;BME280;50592;52.958;-7.470;2022-11-15T12:28:54;97796.78;;;10.02;100.00
64253;BME280;50592;52.958;-7.470;2022-11-15T12:31:51;97803.88;;;10.09;100.00
64253;BME280;50592;52.958;-7.470;2022-11-15T12:34:34;97799.41;;;10.09;100.00
64253;BME280;50592;52.958;-7.470;2022-11-15T12:37:01;97791.91;;;10.06;100.00
64253;BME280;50592;52.958;-7.470;2022-11-15T12:40:16;97789.28;;;9.99;100.00
64253;BME280;50592;52.958;-7.470;2022-11-15T12:45:41;97791.31;;;9.97;100.00
64253;BME280;50592;52.958;-7.470;2022-11-15T12:58:44;97761.66;;;10.02;100.00
64253;BME280;50592;52.958;-7.470;2022-11-15T13:06:43;97757.41;;;10.01;100.00
64253;BME280;50592;52.958;-7.470;2022-11-15T13:11:54;97748.25;;;10.03;100.00
64253;BME280;50592;52.958;-7.470;2022-11-15T13:17:48;97741.16;;;9.97;100.00
64253;BME280;50592;52.958;-7.470;2022-11-15T13:23:01;97733.69;;;9.94;100.00
64253;BME280;50592;52.958;-7.470;2022-11-15T13:28:30;97725.56;;;9.96;100.00
64253;BME280;50592;52.958;-7.470;2022-11-15T13:30:59;97722.69;;;9.97;100.00
64253;BME280;50592;52.958;-7.470;2022-11-15T13:33:35;97724.34;;;9.98;100.00
64253;BME280;50592;52.958;-7.470;2022-11-15T13:36:27;97716.66;;;9.90;100.00
64253;BME280;50592;52.958;-7.470;2022-11-15T13:41:31;97704.28;;;9.84;100.00
64253;BME280;50592;52.958;-7.470;2022-11-15T13:43:58;97703.47;;;9.83;100.00
64253;BME280;50592;52.958;-7.470;2022-11-15T13:46:27;97710.59;;;9.76;100.00
64253;BME280;50592;52.958;-7.470;2022-11-15T13:49:13;97701.72;;;9.63;100.00
64253;BME280;50592;52.958;-7.470;2022-11-15T13:51:46;97698.88;;;9.51;100.00
64253;BME280;50592;52.958;-7.470;2022-11-15T13:57:57;97698.25;;;9.49;100.00
64253;BME280;50592;52.958;-7.470;2022-11-15T14:03:07;97691.38;;;9.48;100.00
64253;BME280;50592;52.958;-7.470;2022-11-15T14:05:34;97691.78;;;9.45;100.00
64253;BME280;50592;52.958;-7.470;2022-11-15T14:08:11;97682.88;;;9.39;100.00
64253;BME280;50592;52.958;-7.470;2022-11-15T14:10:39;97681.28;;;9.32;100.00
64253;BME280;50592;52.958;-7.470;2022-11-15T14:13:27;97678.03;;;9.29;100.00
64253;BME280;50592;52.958;-7.470;2022-11-15T14:15:53;97676.00;;;9.32;100.00
64253;BME280;50592;52.958;-7.470;2022-11-15T14:18:42;97670.50;;;9.40;100.00
64253;BME280;50592;52.958;-7.470;2022-11-15T14:21:08;97673.53;;;9.43;100.00
64253;BME280;50592;52.958;-7.470;2022-11-15T14:23:34;97670.28;;;9.48;100.00
64253;BME280;50592;52.958;-7.470;2022-11-15T14:26:00;97668.47;;;9.55;100.00
64253;BME280;50592;52.958;-7.470;2022-11-15T14:30:55;97670.22;;;9.68;100.00
64253;BME280;50592;52.958;-7.470;2022-11-15T14:33:33;97668.41;;;9.69;100.00
64253;BME280;50592;52.958;-7.470;2022-11-15T14:38:39;97667.56;;;9.75;100.00
64253;BME280;50592;52.958;-7.470;2022-11-15T14:41:05;97664.94;;;9.75;100.00
64253;BME280;50592;52.958;-7.470;2022-11-15T14:43:34;97661.31;;;9.70;100.00
64253;BME280;50592;52.958;-7.470;2022-11-15T14:45:59;97652.59;;;9.62;100.00
64253;BME280;50592;52.958;-7.470;2022-11-15T14:48:27;97652.81;;;9.61;100.00
64253;BME280;50592;52.958;-7.470;2022-11-15T14:50:52;97647.16;;;9.50;100.00
64253;BME280;50592;52.958;-7.470;2022-11-15T14:53:18;97639.88;;;9.46;100.00
64253;BME280;50592;52.958;-7.470;2022-11-15T14:55:45;97643.94;;;9.41;100.00
64253;BME280;50592;52.958;-7.470;2022-11-15T14:58:11;97638.28;;;9.38;100.00
64253;BME280;50592;52.958;-7.470;2022-11-15T15:00:39;97630.78;;;9.35;100.00
64253;BME280;50592;52.958;-7.470;2022-11-15T15:03:05;97631.41;;;9.30;100.00
64253;BME280;50592;52.958;-7.470;2022-11-15T15:08:01;97631.19;;;9.25;100.00
64253;BME280;50592;52.958;-7.470;2022-11-15T15:10:34;97624.69;;;9.34;100.00
64253;BME280;50592;52.958;-7.470;2022-11-15T15:13:00;97629.56;;;9.30;100.00
64253;BME280;50592;52.958;-7.470;2022-11-15T15:15:34;97625.09;;;9.31;100.00
64253;BME280;50592;52.958;-7.470;2022-11-15T15:18:01;97628.97;;;9.28;100.00
64253;BME280;50592;52.958;-7.470;2022-11-15T15:20:27;97631.00;;;9.26;100.00
64253;BME280;50592;52.958;-7.470;2022-11-15T15:22:54;97621.84;;;9.22;100.00
64253;BME280;50592;52.958;-7.470;2022-11-15T15:27:48;97621.47;;;9.12;100.00
64253;BME280;50592;52.958;-7.470;2022-11-15T15:30:14;97617.25;;;9.04;100.00
64253;BME280;50592;52.958;-7.470;2022-11-15T15:32:40;97613.56;;;8.98;100.00
64253;BME280;50592;52.958;-7.470;2022-11-15T15:35:06;97612.00;;;8.84;100.00
64253;BME280;50592;52.958;-7.470;2022-11-15T15:37:36;97602.25;;;8.84;100.00
64253;BME280;50592;52.958;-7.470;2022-11-15T15:40:02;97604.91;;;8.77;100.00
64253;BME280;50592;52.958;-7.470;2022-11-15T15:42:27;97595.38;;;8.76;100.00
64253;BME280;50592;52.958;-7.470;2022-11-15T15:44:53;97598.19;;;8.75;100.00
64253;BME280;50592;52.958;-7.470;2022-11-15T15:47:22;97594.16;;;8.72;100.00
64253;BME280;50592;52.958;-7.470;2022-11-15T15:49:49;97598.59;;;8.72;100.00
64253;BME280;50592;52.958;-7.470;2022-11-15T15:52:16;97594.56;;;8.69;100.00
64253;BME280;50592;52.958;-7.470;2022-11-15T15:54:42;97593.53;;;8.63;100.00
64253;BME280;50592;52.958;-7.470;2022-11-15T15:57:11;97584.66;;;8.64;100.00
64253;BME280;50592;52.958;-7.470;2022-11-15T15:59:37;97586.03;;;8.60;100.00
64253;BME280;50592;52.958;-7.470;2022-11-15T16:02:03;97583.03;;;8.56;100.00
64253;BME280;50592;52.958;-7.470;2022-11-15T16:04:29;97584.84;;;8.56;100.00
64253;BME280;50592;52.958;-7.470;2022-11-15T16:06:59;97582.78;;;8.51;100.00
64253;BME280;50592;52.958;-7.470;2022-11-15T16:09:26;97582.38;;;8.48;100.00
64253;BME280;50592;52.958;-7.470;2022-11-15T16:12:11;97589.88;;;8.44;100.00